Terminal Aerodrome Forecast
Issued by NWS Twin Cities, MN

Home | Current Version | Previous Version | Graphics & Text | Print | Product List | Glossary On
Versions: 1 2 3 4 5 6 7 8 9 10 11 12 13 14 15 16 17 18 19
000
FTUS43 KMPX 111700
TAFEAU
TAF
KEAU 111734Z 1118/1218 20013G24KT P6SM SCT020 BKN040
     FM120300 18005KT P6SM SCT250
     FM120800 VRB02KT 4SM BR SCT250
      TEMPO 1209/1212 1SM BR SCT002
     FM121500 27004KT P6SM SCT030 BKN100=

USA.gov is the U.S. government's official web portal to all federal, state and local government web resources and services.